createdAt,value
2018-03-31T00:01:55.995Z,96.30
2018-03-31T00:04:23.066Z,95.90
2018-03-31T00:06:50.349Z,96.20
2018-03-31T00:09:17.318Z,96.10
2018-03-31T00:11:44.296Z,96.10
2018-03-31T00:14:11.270Z,96.30
2018-03-31T00:16:38.239Z,96.40
2018-03-31T00:19:05.214Z,96.80
2018-03-31T00:21:32.270Z,97.10
2018-03-31T00:23:59.254Z,97.30
2018-03-31T00:26:26.321Z,97.40
2018-03-31T00:28:53.286Z,97.70
2018-03-31T00:31:20.311Z,98.00
2018-03-31T00:33:48.043Z,99.20
2018-03-31T00:36:15.015Z,99.20
2018-03-31T00:38:42.086Z,99.70
2018-03-31T00:41:09.091Z,99.90
2018-03-31T00:43:36.062Z,99.90
2018-03-31T00:46:03.035Z,99.90
2018-03-31T00:48:30.006Z,99.90
2018-03-31T00:50:57.741Z,99.90
2018-03-31T00:53:24.709Z,99.90
2018-03-31T00:55:51.815Z,99.90
2018-03-31T00:58:18.879Z,99.90
2018-03-31T01:00:45.853Z,99.90
2018-03-31T01:03:12.827Z,99.90
2018-03-31T01:05:39.898Z,99.90
2018-03-31T01:08:06.870Z,99.90
2018-03-31T01:10:33.843Z,99.90
2018-03-31T01:13:00.806Z,99.90
2018-03-31T01:15:28.610Z,99.90
2018-03-31T01:17:55.582Z,99.90
2018-03-31T01:20:22.597Z,99.90
2018-03-31T01:22:50.718Z,99.90
2018-03-31T01:25:17.811Z,99.90
2018-03-31T01:27:45.370Z,99.90
2018-03-31T01:30:12.455Z,99.90
2018-03-31T01:32:40.299Z,99.90
2018-03-31T01:35:07.635Z,99.90
2018-03-31T01:37:35.103Z,99.90
2018-03-31T01:40:02.939Z,99.90
2018-03-31T01:42:30.015Z,99.90
2018-03-31T01:44:56.991Z,99.90
2018-03-31T01:47:24.064Z,99.90
2018-03-31T01:49:51.348Z,99.90
2018-03-31T01:52:19.091Z,99.90
2018-03-31T01:54:46.068Z,99.90
2018-03-31T01:57:13.061Z,99.90
2018-03-31T01:59:40.084Z,99.90
2018-03-31T02:02:07.074Z,99.90
2018-03-31T02:04:34.093Z,99.90
2018-03-31T02:07:01.164Z,99.90
2018-03-31T02:09:28.138Z,99.90
2018-03-31T02:11:55.441Z,99.90
2018-03-31T02:14:22.498Z,99.90
2018-03-31T02:16:49.477Z,99.90
2018-03-31T02:19:16.538Z,99.90
2018-03-31T02:21:43.594Z,99.90
2018-03-31T02:24:10.559Z,99.90
2018-03-31T02:26:37.523Z,99.90
2018-03-31T02:29:04.498Z,99.90
2018-03-31T02:31:31.479Z,99.90
2018-03-31T02:33:58.454Z,99.90
2018-03-31T02:36:25.542Z,99.90
2018-03-31T02:38:52.518Z,99.90
2018-03-31T02:41:19.507Z,99.90
2018-03-31T02:43:46.485Z,99.90
2018-03-31T02:46:14.246Z,99.90
2018-03-31T02:48:41.214Z,99.90
2018-03-31T02:51:08.291Z,99.90
2018-03-31T02:53:35.363Z,99.90
2018-03-31T02:56:02.431Z,99.90
2018-03-31T02:58:29.410Z,99.90
2018-03-31T03:00:56.386Z,99.90
2018-03-31T03:03:23.410Z,99.90
2018-03-31T03:05:50.471Z,99.90
2018-03-31T03:08:17.452Z,99.90
2018-03-31T03:10:44.470Z,99.90
2018-03-31T03:13:11.441Z,99.90
2018-03-31T03:15:38.433Z,99.90
2018-03-31T03:18:05.404Z,99.90
2018-03-31T03:20:33.193Z,99.90
2018-03-31T03:23:00.170Z,99.90
2018-03-31T03:27:00.551Z,99.90
2018-03-31T03:30:04.990Z,99.90
2018-03-31T03:32:31.964Z,99.90
2018-03-31T03:34:58.938Z,99.90
2018-03-31T03:37:25.917Z,99.90
2018-03-31T03:39:53.697Z,99.90
2018-03-31T03:42:21.200Z,99.90
2018-03-31T03:44:48.254Z,99.90
2018-03-31T03:47:15.227Z,99.90
2018-03-31T03:49:42.197Z,99.90
2018-03-31T03:52:09.175Z,99.90
2018-03-31T03:54:36.144Z,99.90
2018-03-31T03:57:03.119Z,99.90
2018-03-31T03:59:30.187Z,99.90
2018-03-31T04:01:57.262Z,99.90
2018-03-31T04:04:24.229Z,99.90
2018-03-31T04:06:51.197Z,99.90
2018-03-31T04:09:20.376Z,99.90
2018-03-31T04:11:48.115Z,99.90
2018-03-31T04:14:15.095Z,99.90
2018-03-31T04:16:42.150Z,99.90
2018-03-31T04:19:09.137Z,99.90
2018-03-31T04:21:36.106Z,99.90
2018-03-31T04:24:03.082Z,99.90
2018-03-31T04:26:30.147Z,99.90
2018-03-31T04:28:57.198Z,99.90
2018-03-31T04:31:24.194Z,99.90
2018-03-31T04:33:51.170Z,99.90
2018-03-31T04:36:18.143Z,99.90
2018-03-31T04:38:45.114Z,99.90
2018-03-31T04:41:12.208Z,99.90
2018-03-31T04:43:39.283Z,99.90
2018-03-31T04:46:06.332Z,99.90
2018-03-31T04:48:33.310Z,99.90
2018-03-31T04:51:00.287Z,99.90
2018-03-31T04:53:27.261Z,99.90
2018-03-31T04:55:54.733Z,99.90
2018-03-31T04:58:21.714Z,99.90
2018-03-31T05:00:48.694Z,99.90
2018-03-31T05:03:15.666Z,99.90
2018-03-31T05:05:42.656Z,99.90
2018-03-31T05:08:09.627Z,99.90
2018-03-31T05:10:37.383Z,99.90
2018-03-31T05:13:04.358Z,99.90
2018-03-31T05:15:31.330Z,99.90
2018-03-31T05:17:58.302Z,99.90
2018-03-31T05:20:25.370Z,99.90
2018-03-31T05:22:52.340Z,99.90
2018-03-31T05:25:19.307Z,99.90
2018-03-31T05:27:46.286Z,99.90
2018-03-31T05:30:13.350Z,99.90
2018-03-31T05:32:40.418Z,99.90
2018-03-31T05:35:07.497Z,99.90
2018-03-31T05:37:35.289Z,99.90
2018-03-31T05:40:02.258Z,99.90
2018-03-31T05:42:29.224Z,99.90
2018-03-31T05:44:56.195Z,99.90
2018-03-31T05:47:55.921Z,99.90
2018-03-31T05:50:22.898Z,99.90
2018-03-31T05:52:49.874Z,99.90
2018-03-31T05:55:16.858Z,99.90
2018-03-31T05:57:43.834Z,99.90
2018-03-31T06:00:10.806Z,99.90
2018-03-31T06:02:37.785Z,99.90
2018-03-31T06:05:04.766Z,99.90
2018-03-31T06:07:31.727Z,99.90
2018-03-31T06:09:58.798Z,99.90
2018-03-31T06:12:25.767Z,99.90
2018-03-31T06:14:52.739Z,99.90
2018-03-31T06:17:19.705Z,99.90
2018-03-31T06:19:46.679Z,99.90
2018-03-31T06:22:13.803Z,99.90
2018-03-31T06:24:41.538Z,99.90
2018-03-31T06:27:08.506Z,99.90
2018-03-31T06:29:35.474Z,99.90
2018-03-31T06:32:02.446Z,99.90
2018-03-31T06:34:29.462Z,99.90
2018-03-31T06:36:56.430Z,99.90
2018-03-31T06:39:23.410Z,99.90
2018-03-31T06:41:51.278Z,99.90
2018-03-31T06:44:18.250Z,99.90
2018-03-31T06:46:45.328Z,99.90
2018-03-31T06:49:12.308Z,99.90
2018-03-31T06:51:39.282Z,99.90
2018-03-31T06:54:06.383Z,99.90
2018-03-31T06:56:33.370Z,99.90
2018-03-31T06:59:00.442Z,99.90
2018-03-31T07:01:27.414Z,99.90
2018-03-31T07:03:54.386Z,99.90
2018-03-31T07:06:21.458Z,99.90
2018-03-31T07:08:48.438Z,99.90
2018-03-31T07:11:15.508Z,99.90
2018-03-31T07:13:42.481Z,99.90
2018-03-31T07:16:09.552Z,99.90
2018-03-31T07:18:36.782Z,99.90
2018-03-31T07:21:03.787Z,99.90
2018-03-31T07:23:30.750Z,99.90
2018-03-31T07:25:57.726Z,99.90
2018-03-31T07:28:24.701Z,99.90
2018-03-31T07:30:52.684Z,99.90
2018-03-31T07:33:19.647Z,99.90
2018-03-31T07:35:46.642Z,99.90
2018-03-31T07:38:13.628Z,99.90
2018-03-31T07:40:42.223Z,99.90
2018-03-31T07:43:09.299Z,99.90
2018-03-31T07:45:36.282Z,99.90
2018-03-31T07:48:03.282Z,99.90
2018-03-31T07:50:30.238Z,99.90
2018-03-31T07:52:57.330Z,99.90
2018-03-31T07:55:25.062Z,99.60
2018-03-31T07:57:52.054Z,99.60
2018-03-31T08:00:19.030Z,99.40
2018-03-31T08:02:46.084Z,99.70
2018-03-31T08:05:13.160Z,99.80
2018-03-31T08:07:40.247Z,99.70
2018-03-31T08:10:07.274Z,99.00
2018-03-31T08:12:34.278Z,98.70
2018-03-31T08:15:01.250Z,99.00
2018-03-31T08:17:28.226Z,99.40
2018-03-31T08:19:55.283Z,99.40
2018-03-31T08:22:22.371Z,98.70
2018-03-31T08:24:49.345Z,99.50
2018-03-31T08:27:16.349Z,98.90
2018-03-31T08:29:44.082Z,98.20
2018-03-31T08:32:11.167Z,98.20
2018-03-31T08:34:38.130Z,98.10
2018-03-31T08:37:05.102Z,98.40
2018-03-31T08:39:32.095Z,98.90
2018-03-31T08:41:59.153Z,98.70
2018-03-31T08:44:32.334Z,98.90
2018-03-31T08:47:07.094Z,98.80
2018-03-31T08:49:41.227Z,98.80
2018-03-31T08:52:22.826Z,97.50
2018-03-31T08:54:58.151Z,97.70
2018-03-31T08:57:25.789Z,98.30
2018-03-31T09:00:04.521Z,97.60
2018-03-31T09:02:32.115Z,97.20
2018-03-31T09:07:41.612Z,96.90
2018-03-31T09:10:08.572Z,96.90
2018-03-31T09:12:36.364Z,96.20
2018-03-31T09:15:04.087Z,96.20
2018-03-31T09:17:31.068Z,96.20
2018-03-31T09:19:58.793Z,95.30
2018-03-31T09:22:25.764Z,95.30
2018-03-31T09:24:52.724Z,95.20
2018-03-31T09:27:20.465Z,93.50
2018-03-31T09:29:47.429Z,93.40
2018-03-31T09:32:15.152Z,94.00
2018-03-31T09:34:42.112Z,94.00
2018-03-31T09:37:09.076Z,94.40
2018-03-31T09:39:36.793Z,92.30
2018-03-31T09:42:03.760Z,92.30
2018-03-31T09:44:30.739Z,93.40
2018-03-31T09:46:58.468Z,92.50
2018-03-31T09:49:25.434Z,92.50
2018-03-31T09:51:52.389Z,92.80
2018-03-31T09:54:20.113Z,92.60
2018-03-31T09:56:47.076Z,92.60
2018-03-31T09:59:14.039Z,92.40
2018-03-31T10:01:41.769Z,92.80
2018-03-31T10:04:08.748Z,92.70
2018-03-31T10:06:36.482Z,94.10
2018-03-31T10:09:03.451Z,94.10
2018-03-31T10:11:31.176Z,94.00
2018-03-31T10:13:58.178Z,94.00
2018-03-31T10:16:25.113Z,93.20
2018-03-31T10:18:52.836Z,93.50
2018-03-31T10:21:19.792Z,93.50
2018-03-31T10:23:46.748Z,93.00
2018-03-31T10:26:14.472Z,93.30
2018-03-31T10:28:41.431Z,93.20
2018-03-31T10:31:08.397Z,93.30
2018-03-31T10:33:35.361Z,93.30
2018-03-31T10:36:03.080Z,93.60
2018-03-31T10:38:30.049Z,93.60
2018-03-31T10:40:57.008Z,93.10
2018-03-31T10:43:24.732Z,94.70
2018-03-31T10:45:51.693Z,94.70
2018-03-31T10:48:18.655Z,93.00
2018-03-31T10:50:46.382Z,93.20
2018-03-31T10:53:13.336Z,93.20
2018-03-31T10:55:40.292Z,92.90
2018-03-31T10:58:07.251Z,92.50
2018-03-31T11:00:34.980Z,89.20
2018-03-31T11:03:02.005Z,89.10
2018-03-31T11:05:28.981Z,90.10
2018-03-31T11:07:55.933Z,90.40
2018-03-31T11:10:22.940Z,88.80
2018-03-31T11:12:49.930Z,88.70
2018-03-31T11:15:16.857Z,89.60
2018-03-31T11:17:43.844Z,87.60
2018-03-31T11:20:11.579Z,89.10
2018-03-31T11:22:38.614Z,89.00
2018-03-31T11:25:05.671Z,87.40
2018-03-31T11:27:32.631Z,88.00
2018-03-31T11:30:00.373Z,89.40
2018-03-31T11:32:27.348Z,89.30
2018-03-31T11:34:55.089Z,88.10
2018-03-31T11:37:22.057Z,88.10
2018-03-31T11:39:49.781Z,91.00
2018-03-31T11:42:16.741Z,91.00
2018-03-31T11:44:43.720Z,90.80
2018-03-31T11:47:10.682Z,90.80
2018-03-31T11:49:37.652Z,91.40
2018-03-31T11:52:04.611Z,91.60
2018-03-31T11:54:31.588Z,90.50
2018-03-31T11:56:59.314Z,83.70
2018-03-31T11:59:26.281Z,83.70
2018-03-31T12:01:53.248Z,83.70
2018-03-31T12:04:20.209Z,79.70
2018-03-31T12:06:47.185Z,77.20
2018-03-31T12:09:14.153Z,76.20
2018-03-31T12:11:41.114Z,77.90
2018-03-31T12:14:08.842Z,77.00
2018-03-31T12:16:35.813Z,77.00
2018-03-31T12:19:02.790Z,77.80
2018-03-31T12:21:29.744Z,78.70
2018-03-31T12:23:56.700Z,79.00
2018-03-31T12:26:23.660Z,79.90
2018-03-31T12:28:50.616Z,78.20
2018-03-31T12:31:17.580Z,78.20
2018-03-31T12:33:44.537Z,76.20
2018-03-31T12:36:12.449Z,78.10
2018-03-31T12:38:39.418Z,77.90
2018-03-31T12:41:06.388Z,78.70
2018-03-31T12:43:34.115Z,79.30
2018-03-31T12:46:01.080Z,79.20
2018-03-31T12:48:28.040Z,78.40
2018-03-31T12:50:55.780Z,79.70
2018-03-31T12:53:22.740Z,79.70
2018-03-31T12:55:49.705Z,82.30
2018-03-31T12:58:17.444Z,82.10
2018-03-31T13:00:44.492Z,82.00
2018-03-31T13:03:11.484Z,82.00
2018-03-31T13:05:38.447Z,80.20
2018-03-31T13:08:05.416Z,80.30
2018-03-31T13:10:32.376Z,81.60
2018-03-31T13:12:59.356Z,82.10
2018-03-31T13:15:26.312Z,81.20
2018-03-31T13:17:53.267Z,79.00
2018-03-31T13:20:26.388Z,81.10
2018-03-31T13:22:54.261Z,79.80
2018-03-31T13:25:21.187Z,81.30
2018-03-31T13:27:48.176Z,81.80
2018-03-31T13:30:15.905Z,80.50
2018-03-31T13:32:42.872Z,80.40
2018-03-31T13:35:10.605Z,78.90
2018-03-31T13:37:37.574Z,78.90
2018-03-31T13:40:04.536Z,79.30
2018-03-31T13:42:32.323Z,78.10
2018-03-31T13:44:59.280Z,78.00
2018-03-31T13:47:26.241Z,78.20
2018-03-31T13:49:53.208Z,79.00
2018-03-31T13:52:20.168Z,81.30
2018-03-31T13:54:47.896Z,79.80
2018-03-31T13:57:14.957Z,79.70
2018-03-31T13:59:41.917Z,78.40
2018-03-31T14:02:08.876Z,79.30
2018-03-31T14:04:36.612Z,80.50
2018-03-31T14:07:03.569Z,80.40
2018-03-31T14:09:30.537Z,79.50
2018-03-31T14:11:57.553Z,82.20
2018-03-31T14:14:24.588Z,81.80
2018-03-31T14:16:51.554Z,80.00
2018-03-31T14:19:19.288Z,76.10
2018-03-31T14:21:46.344Z,76.10
2018-03-31T14:24:13.320Z,75.20
2018-03-31T14:26:41.152Z,74.50
2018-03-31T14:29:08.200Z,74.40
2018-03-31T14:31:35.248Z,74.00
2018-03-31T14:34:02.302Z,76.10
2018-03-31T14:36:30.057Z,78.70
2018-03-31T14:38:57.012Z,78.70
2018-03-31T14:41:23.980Z,80.30
2018-03-31T14:43:51.813Z,83.70
2018-03-31T14:46:18.854Z,83.80
2018-03-31T14:48:45.831Z,83.90
2018-03-31T14:51:13.565Z,83.40
2018-03-31T14:53:40.569Z,83.30
2018-03-31T14:56:08.027Z,84.00
2018-03-31T14:58:34.998Z,83.30
2018-03-31T15:01:01.988Z,83.80
2018-03-31T15:03:29.827Z,83.80
2018-03-31T15:05:56.814Z,83.80
2018-03-31T15:08:23.821Z,83.80
2018-03-31T15:10:50.856Z,84.20
2018-03-31T15:13:17.827Z,84.60
2018-03-31T15:15:44.861Z,83.30
2018-03-31T15:18:11.827Z,81.30
2018-03-31T15:20:39.666Z,81.70
2018-03-31T15:23:06.626Z,81.60
2018-03-31T15:25:33.657Z,82.30
2018-03-31T15:28:00.674Z,82.40
2018-03-31T15:30:28.527Z,81.10
2018-03-31T15:32:55.517Z,80.80
2018-03-31T15:35:22.471Z,81.60
2018-03-31T15:37:49.452Z,81.60
2018-03-31T15:40:16.445Z,80.90
2018-03-31T15:42:43.453Z,81.60
2018-03-31T15:45:10.426Z,78.60
2018-03-31T15:47:37.420Z,79.10
2018-03-31T15:50:05.149Z,77.90
2018-03-31T15:52:32.103Z,77.90
2018-03-31T15:54:59.145Z,78.90
2018-03-31T15:57:27.625Z,78.50
2018-03-31T15:59:54.585Z,78.50
2018-03-31T16:02:22.605Z,79.20
2018-03-31T16:04:49.565Z,79.20
2018-03-31T16:07:16.524Z,80.30
2018-03-31T16:09:43.492Z,79.30
2018-03-31T16:12:11.325Z,79.90
2018-03-31T16:14:38.281Z,79.90
2018-03-31T16:17:05.249Z,80.10
2018-03-31T16:19:32.976Z,80.80
2018-03-31T16:21:59.945Z,80.70
2018-03-31T16:24:26.902Z,83.40
2018-03-31T16:26:54.635Z,82.50
2018-03-31T16:29:21.685Z,82.50
2018-03-31T16:31:49.414Z,81.80
2018-03-31T16:34:16.376Z,81.90
2018-03-31T16:36:43.340Z,83.30
2018-03-31T16:39:11.101Z,83.90
2018-03-31T16:41:38.065Z,84.00
2018-03-31T16:44:05.800Z,83.20
2018-03-31T16:46:32.768Z,83.10
2018-03-31T16:48:59.792Z,84.20
2018-03-31T16:51:26.760Z,83.50
2018-03-31T16:53:54.541Z,84.50
2018-03-31T16:56:22.368Z,84.80
2018-03-31T16:58:49.327Z,84.80
2018-03-31T17:01:16.308Z,85.10
2018-03-31T17:03:43.324Z,84.80
2018-03-31T17:06:10.521Z,84.20
2018-03-31T17:08:37.607Z,84.60
2018-03-31T17:11:04.676Z,85.30
2018-03-31T17:13:31.626Z,84.20
2018-03-31T17:15:59.382Z,85.70
2018-03-31T17:18:27.129Z,86.10
2018-03-31T17:20:54.106Z,85.70
2018-03-31T17:23:21.928Z,86.80
2018-03-31T17:25:48.908Z,86.80
2018-03-31T17:28:16.752Z,89.00
2018-03-31T17:30:43.805Z,88.90
2018-03-31T17:33:10.820Z,90.20
2018-03-31T17:35:37.784Z,90.80
2018-03-31T17:38:04.765Z,91.10
2018-03-31T17:40:32.493Z,92.50
2018-03-31T17:42:59.457Z,92.40
2018-03-31T17:45:27.193Z,93.50
2018-03-31T17:47:54.155Z,93.50
2018-03-31T17:50:21.117Z,93.80
2018-03-31T17:52:48.836Z,94.30
2018-03-31T17:55:15.809Z,94.30
2018-03-31T17:57:42.884Z,94.60
2018-03-31T18:00:09.850Z,95.30
2018-03-31T18:02:36.823Z,95.80
2018-03-31T18:05:03.791Z,96.20
2018-03-31T18:07:30.751Z,96.60
2018-03-31T18:09:58.504Z,97.00
2018-03-31T18:12:25.508Z,97.00
2018-03-31T18:14:52.464Z,97.00
2018-03-31T18:17:19.458Z,97.00
2018-03-31T18:19:47.181Z,97.40
2018-03-31T18:22:14.146Z,97.40
2018-03-31T18:24:41.245Z,97.80
2018-03-31T18:27:08.241Z,98.30
2018-03-31T18:29:35.211Z,98.10
2018-03-31T18:32:02.282Z,97.90
2018-03-31T18:34:29.402Z,97.80
2018-03-31T18:36:57.151Z,98.30
2018-03-31T18:39:25.049Z,98.50
2018-03-31T18:41:52.042Z,98.50
2018-03-31T18:44:19.028Z,98.70
2018-03-31T18:46:46.154Z,98.90
2018-03-31T18:49:13.176Z,99.10
2018-03-31T18:51:40.255Z,99.00
2018-03-31T18:54:07.246Z,99.00
2018-03-31T18:56:34.320Z,99.20
2018-03-31T18:59:01.291Z,99.50
2018-03-31T19:01:29.050Z,99.60
2018-03-31T19:03:56.080Z,99.60
2018-03-31T19:06:23.057Z,99.90
2018-03-31T19:08:51.498Z,99.90
2018-03-31T19:11:18.469Z,99.90
2018-03-31T19:13:46.201Z,99.90
2018-03-31T19:16:13.426Z,99.90
2018-03-31T19:18:40.556Z,99.90
2018-03-31T19:21:07.552Z,99.90
2018-03-31T19:23:34.516Z,99.90
2018-03-31T19:26:01.489Z,99.90
2018-03-31T19:28:28.584Z,99.90
2018-03-31T19:30:55.601Z,99.90
2018-03-31T19:33:22.599Z,99.90
2018-03-31T19:35:55.239Z,99.90
2018-03-31T19:38:22.310Z,99.90
2018-03-31T19:40:50.223Z,99.90
2018-03-31T19:43:17.205Z,99.90
2018-03-31T19:45:44.165Z,99.90
2018-03-31T19:48:11.138Z,99.90
2018-03-31T19:50:38.876Z,99.90
2018-03-31T19:53:05.854Z,99.90
2018-03-31T19:55:33.639Z,99.90
2018-03-31T19:58:01.335Z,99.90
2018-03-31T20:00:28.304Z,99.90
2018-03-31T20:02:55.612Z,99.90
2018-03-31T20:05:22.679Z,99.90
2018-03-31T20:07:49.674Z,99.90
2018-03-31T20:10:17.427Z,99.90
2018-03-31T20:12:44.390Z,99.90
2018-03-31T20:15:12.372Z,99.90
2018-03-31T20:17:39.481Z,99.90
2018-03-31T20:20:07.929Z,99.90
2018-03-31T20:22:34.929Z,99.90
2018-03-31T20:25:02.801Z,99.90
2018-03-31T20:27:29.849Z,99.90
2018-03-31T20:29:56.976Z,99.90
2018-03-31T20:32:24.173Z,99.90
2018-03-31T20:34:51.168Z,99.90
2018-03-31T20:37:18.929Z,99.90
2018-03-31T20:39:45.920Z,99.90
2018-03-31T20:42:13.053Z,99.90
2018-03-31T20:44:40.189Z,99.90
2018-03-31T20:47:07.926Z,99.90
2018-03-31T20:49:35.683Z,99.90
2018-03-31T20:52:03.511Z,99.90
2018-03-31T20:54:30.512Z,99.90
2018-03-31T20:56:58.298Z,99.90
2018-03-31T20:59:25.469Z,99.90
2018-03-31T21:01:52.473Z,99.90
2018-03-31T21:04:19.613Z,99.90
2018-03-31T21:06:46.681Z,99.90
2018-03-31T21:09:14.424Z,99.90
2018-03-31T21:11:41.389Z,99.90
2018-03-31T21:14:09.582Z,99.90
2018-03-31T21:16:36.536Z,99.90
2018-03-31T21:19:03.492Z,99.90
2018-03-31T21:21:30.452Z,99.90
2018-03-31T21:23:57.412Z,99.90
2018-03-31T21:26:24.372Z,99.90
2018-03-31T21:28:52.103Z,99.90
2018-03-31T21:31:19.076Z,99.90
2018-03-31T21:33:46.039Z,99.90
2018-03-31T21:36:13.823Z,99.90
2018-03-31T21:38:40.776Z,99.90
2018-03-31T21:41:07.768Z,99.90
2018-03-31T21:43:34.736Z,99.90
2018-03-31T21:46:02.448Z,99.90
2018-03-31T21:48:29.412Z,99.90
2018-03-31T21:50:56.368Z,99.90
2018-03-31T21:53:23.336Z,99.90
2018-03-31T21:55:50.304Z,99.90
2018-03-31T21:58:17.265Z,99.90
2018-03-31T22:00:44.220Z,99.90
2018-03-31T22:03:11.196Z,99.90
2018-03-31T22:05:38.161Z,99.90
2018-03-31T22:08:05.886Z,99.90
2018-03-31T22:10:32.849Z,99.90
2018-03-31T22:13:06.268Z,99.90
2018-03-31T22:15:38.800Z,99.90
2018-03-31T22:18:05.782Z,99.90
2018-03-31T22:20:33.505Z,99.90
2018-03-31T22:23:00.481Z,99.90
2018-03-31T22:25:28.200Z,99.90
2018-03-31T22:27:55.165Z,99.90
2018-03-31T22:30:22.129Z,99.90
2018-03-31T22:32:49.857Z,99.90
2018-03-31T22:35:16.822Z,99.90
2018-03-31T22:37:43.777Z,99.90
2018-03-31T22:40:11.501Z,99.90
2018-03-31T22:42:38.456Z,99.90
2018-03-31T22:45:05.415Z,99.90
2018-03-31T22:47:32.380Z,99.90
2018-03-31T22:50:00.102Z,99.90
2018-03-31T22:52:27.069Z,99.90
2018-03-31T22:54:54.040Z,99.90
2018-03-31T22:57:21.765Z,99.90
2018-03-31T22:59:48.729Z,99.90
2018-03-31T23:02:15.684Z,99.90
2018-03-31T23:04:43.416Z,99.90
2018-03-31T23:07:10.372Z,99.90
2018-03-31T23:09:37.339Z,99.90
2018-03-31T23:12:05.060Z,99.90
2018-03-31T23:14:32.020Z,99.90
2018-03-31T23:16:58.980Z,99.90
2018-03-31T23:19:25.940Z,99.90
2018-03-31T23:21:53.672Z,99.90
2018-03-31T23:24:20.634Z,99.90
2018-03-31T23:26:47.597Z,99.90
2018-03-31T23:29:14.561Z,99.90
2018-03-31T23:31:41.526Z,99.90
2018-03-31T23:34:08.488Z,99.90
2018-03-31T23:36:35.460Z,99.90
2018-03-31T23:39:03.182Z,99.90
2018-03-31T23:41:30.141Z,99.90
2018-03-31T23:43:57.100Z,99.90
2018-03-31T23:46:24.064Z,99.90
2018-03-31T23:48:51.788Z,99.90
2018-03-31T23:51:18.769Z,99.90
2018-03-31T23:53:46.492Z,99.90
2018-03-31T23:56:13.453Z,99.90
2018-03-31T23:58:40.414Z,99.90
